Time;durP1;ratioP1;P1;durP2;ratioP2;P2;SDS_P1;SDS_P2;PMS_P1;PMS_P2;Temp;Humidity;BMP_temperature;BMP_pressure;BME280_temperature;BME280_humidity;BME280_pressure;Samples;Min_cycle;Max_cycle;Signal;HPM_P1;HPM_P2
2021/08/11 00:02:21;;;;;;;8.35;5.72;;;16.60;99.90;;;;;;5032494;28;20022;-41
2021/08/11 00:04:48;;;;;;;7.03;5.43;;;16.60;99.90;;;;;;5031003;28;20474;-44
2021/08/11 00:07:13;;;;;;;8.25;5.75;;;16.50;99.90;;;;;;5032549;28;20497;-44
2021/08/11 00:09:39;;;;;;;8.27;5.70;;;16.50;99.90;;;;;;5031578;28;20509;-43
2021/08/11 00:12:05;;;;;;;8.90;6.07;;;16.50;99.90;;;;;;5031227;28;20065;-39
2021/08/11 00:14:31;;;;;;;8.13;6.15;;;16.50;99.90;;;;;;5032303;28;20140;-39
2021/08/11 00:16:57;;;;;;;8.55;6.05;;;16.50;99.90;;;;;;5031989;28;20136;-39
2021/08/11 00:19:25;;;;;;;7.60;6.15;;;16.40;99.90;;;;;;5031242;28;20022;-43
2021/08/11 00:21:52;;;;;;;8.57;6.78;;;16.50;99.90;;;;;;5031305;28;20460;-42
2021/08/11 00:24:18;;;;;;;7.75;6.50;;;16.50;99.90;;;;;;5032123;28;20029;-44
2021/08/11 00:26:45;;;;;;;7.05;6.05;;;16.40;99.90;;;;;;5031104;28;20017;-43
2021/08/11 00:29:12;;;;;;;9.80;6.28;;;16.40;99.90;;;;;;5032101;28;20091;-42
2021/08/11 00:31:39;;;;;;;8.30;6.20;;;16.40;99.90;;;;;;5031837;28;20017;-42
2021/08/11 00:34:04;;;;;;;6.18;5.55;;;16.40;99.90;;;;;;5031630;28;20520;-44
2021/08/11 00:36:32;;;;;;;7.32;5.90;;;16.40;99.90;;;;;;5031241;28;20059;-41
2021/08/11 00:38:59;;;;;;;8.85;6.25;;;16.30;99.90;;;;;;5031593;28;20457;-41
2021/08/11 00:41:25;;;;;;;7.13;6.43;;;16.30;99.90;;;;;;5030817;28;20465;-42
2021/08/11 00:43:53;;;;;;;8.05;6.22;;;16.30;99.90;;;;;;5031362;28;20175;-44
2021/08/11 00:46:20;;;;;;;9.43;6.57;;;16.30;99.90;;;;;;5031599;28;20017;-40
2021/08/11 00:48:46;;;;;;;7.47;6.10;;;16.30;99.90;;;;;;5029969;28;20040;-41
2021/08/11 00:51:13;;;;;;;7.60;6.75;;;16.20;99.90;;;;;;5032250;28;20030;-43
2021/08/11 00:53:40;;;;;;;7.57;6.65;;;16.20;99.90;;;;;;5031066;28;20022;-40
2021/08/11 00:56:07;;;;;;;10.95;7.35;;;16.20;99.90;;;;;;5030764;28;20551;-41
2021/08/11 00:58:35;;;;;;;13.18;6.82;;;16.20;99.90;;;;;;5031633;28;20496;-44
2021/08/11 01:01:02;;;;;;;7.72;6.93;;;16.10;99.90;;;;;;5030078;28;20029;-43
2021/08/11 01:03:29;;;;;;;9.57;7.78;;;16.10;99.90;;;;;;5031022;28;20124;-39
2021/08/11 01:06:00;;;;;;;8.63;7.13;;;16.10;99.90;;;;;;5030671;28;20393;-41
2021/08/11 01:08:28;;;;;;;8.40;6.95;;;16.10;99.90;;;;;;5030768;28;20022;-39
2021/08/11 01:10:55;;;;;;;8.32;7.32;;;16.10;99.90;;;;;;5030913;28;20044;-41
2021/08/11 01:13:22;;;;;;;7.72;6.95;;;16.00;99.90;;;;;;5031493;28;20026;-43
2021/08/11 01:15:49;;;;;;;8.98;6.60;;;16.00;99.90;;;;;;5030115;28;20112;-44
2021/08/11 01:18:17;;;;;;;9.15;6.63;;;16.00;99.90;;;;;;5030923;28;20610;-36
2021/08/11 01:21:14;;;;;;;9.80;7.28;;;15.90;99.90;;;;;;5031634;28;20029;-40
2021/08/11 01:24:06;;;;;;;10.15;7.55;;;15.90;99.90;;;;;;5028750;28;20087;-42
2021/08/11 01:26:51;;;;;;;8.98;6.72;;;15.90;99.90;;;;;;5030828;28;20033;-41
2021/08/11 01:29:42;;;;;;;8.85;6.60;;;15.90;99.90;;;;;;5021557;28;20018;-44
2021/08/11 01:32:22;;;;;;;9.93;7.43;;;15.90;99.90;;;;;;5030703;28;20373;-42
2021/08/11 01:34:56;;;;;;;9.32;7.68;;;15.80;99.90;;;;;;5029920;28;20481;-37
2021/08/11 01:37:29;;;;;;;8.43;7.10;;;15.80;99.90;;;;;;5029687;28;20373;-42
2021/08/11 01:39:58;;;;;;;;;;;15.80;99.90;;;;;;5030907;28;20108;-41
2021/08/11 01:42:52;;;;;;;10.75;7.90;;;15.70;99.90;;;;;;5030260;28;19911;-44
2021/08/11 01:45:27;;;;;;;9.32;7.55;;;15.70;99.90;;;;;;5029426;28;20099;-45
2021/08/11 01:48:11;;;;;;;8.95;7.82;;;15.70;99.90;;;;;;5029709;28;20037;-40
2021/08/11 01:50:42;;;;;;;9.95;7.85;;;15.70;99.90;;;;;;5028726;28;20317;-40
2021/08/11 01:53:11;;;;;;;9.27;7.50;;;15.60;99.90;;;;;;5030319;28;20021;-43
2021/08/11 01:55:39;;;;;;;10.20;8.00;;;15.60;99.90;;;;;;5030204;28;20572;-43
2021/08/11 01:58:05;;;;;;;9.05;8.15;;;15.60;99.90;;;;;;5029784;28;20033;-42
2021/08/11 02:00:32;;;;;;;9.80;8.15;;;15.60;99.90;;;;;;5028871;28;20500;-43
2021/08/11 02:02:59;;;;;;;9.50;8.43;;;15.60;99.90;;;;;;5028959;28;20457;-43
2021/08/11 02:05:32;;;;;;;13.55;9.30;;;15.60;99.90;;;;;;5029742;28;20033;-44
2021/08/11 02:08:03;;;;;;;10.35;9.27;;;15.60;99.90;;;;;;5029737;28;20361;-42
2021/08/11 02:10:29;;;;;;;11.43;8.88;;;15.60;99.90;;;;;;5019486;28;20095;-42
2021/08/11 02:12:56;;;;;;;11.38;8.60;;;15.60;99.90;;;;;;5029100;28;20060;-41
2021/08/11 02:15:21;;;;;;;12.85;9.57;;;15.50;99.90;;;;;;5029967;28;20030;-44
2021/08/11 02:17:47;;;;;;;11.88;10.02;;;15.50;99.90;;;;;;5029683;28;20026;-43
2021/08/11 02:20:15;;;;;;;11.73;9.38;;;15.50;99.90;;;;;;5029825;28;20032;-43
2021/08/11 02:22:41;;;;;;;12.85;10.07;;;15.50;99.90;;;;;;5030400;28;20022;-42
2021/08/11 02:25:10;;;;;;;11.60;9.88;;;15.50;99.90;;;;;;5030068;28;20040;-43
2021/08/11 02:28:12;;;;;;;10.77;9.77;;;15.50;99.90;;;;;;5029087;28;20437;-43
2021/08/11 02:30:43;;;;;;;10.73;9.73;;;15.40;99.90;;;;;;5028254;28;20128;-42
2021/08/11 02:33:35;;;;;;;12.07;9.85;;;15.40;99.90;;;;;;5029301;28;20381;-42
2021/08/11 02:36:07;;;;;;;12.48;10.75;;;15.30;99.90;;;;;;5029580;28;20481;-43
2021/08/11 02:38:40;;;;;;;11.93;10.23;;;15.40;99.90;;;;;;5028974;28;20041;-41
2021/08/11 02:41:21;;;;;;;14.52;10.13;;;15.30;99.90;;;;;;5026438;28;20037;-44
2021/08/11 02:43:52;;;;;;;12.32;10.60;;;15.30;99.90;;;;;;5029242;28;20026;-42
2021/08/11 02:46:23;;;;;;;12.37;11.03;;;15.30;99.90;;;;;;5030198;28;20022;-43
2021/08/11 02:49:01;;;;;;;12.35;10.65;;;15.30;99.90;;;;;;5029159;28;20513;-43
2021/08/11 02:51:29;;;;;;;12.55;11.18;;;15.30;99.90;;;;;;5026201;28;20124;-39
2021/08/11 02:53:58;;;;;;;11.85;10.43;;;15.20;99.90;;;;;;5028699;28;20029;-40
2021/08/11 02:56:23;;;;;;;12.98;10.77;;;15.20;99.90;;;;;;5028666;28;20024;-42
2021/08/11 02:58:50;;;;;;;12.93;11.60;;;15.20;99.90;;;;;;5028538;28;20077;-43
2021/08/11 03:01:16;;;;;;;16.63;11.93;;;15.20;99.90;;;;;;5029568;28;20381;-37
2021/08/11 03:03:45;;;;;;;13.80;12.27;;;15.20;99.90;;;;;;5029023;28;20029;-39
2021/08/11 03:06:12;;;;;;;14.43;11.70;;;15.20;99.90;;;;;;5028996;28;20037;-38
2021/08/11 03:08:38;;;;;;;13.90;11.50;;;15.30;99.90;;;;;;5028317;28;20014;-45
2021/08/11 03:11:04;;;;;;;12.88;11.52;;;15.20;99.90;;;;;;5028521;28;20048;-39
2021/08/11 03:13:30;;;;;;;14.38;12.02;;;15.20;99.90;;;;;;5029255;28;20095;-40
2021/08/11 03:15:56;;;;;;;14.27;11.00;;;15.20;99.90;;;;;;5027347;28;20057;-40
2021/08/11 03:18:22;;;;;;;13.75;11.15;;;15.20;99.90;;;;;;5029673;28;20022;-36
2021/08/11 03:20:48;;;;;;;12.10;10.90;;;15.20;99.90;;;;;;5028916;28;20029;-37
2021/08/11 03:23:15;;;;;;;12.77;11.48;;;15.20;99.90;;;;;;5029378;28;20023;-41
2021/08/11 03:25:42;;;;;;;13.25;11.85;;;15.20;99.90;;;;;;5029965;28;20033;-40
2021/08/11 03:28:10;;;;;;;14.70;12.30;;;15.10;99.90;;;;;;5028939;28;20112;-39
2021/08/11 03:30:37;;;;;;;12.88;11.52;;;15.20;99.90;;;;;;5028487;28;20017;-43
2021/08/11 03:33:06;;;;;;;13.05;11.65;;;15.20;99.90;;;;;;5029421;28;20017;-43
2021/08/11 03:35:32;;;;;;;12.60;11.20;;;15.20;99.90;;;;;;5028483;28;20021;-40
2021/08/11 03:37:57;;;;;;;13.82;12.43;;;15.20;99.90;;;;;;5028155;28;20025;-42
2021/08/11 03:40:23;;;;;;;13.30;11.55;;;15.20;99.90;;;;;;5028629;28;20076;-41
2021/08/11 03:42:48;;;;;;;13.05;11.73;;;15.20;99.90;;;;;;5027478;28;20369;-41
2021/08/11 03:45:14;;;;;;;12.45;10.90;;;15.20;99.90;;;;;;5029317;28;20041;-43
2021/08/11 03:47:44;;;;;;;12.52;11.25;;;15.20;99.90;;;;;;5028814;28;20497;-40
2021/08/11 03:50:14;;;;;;;14.27;12.40;;;15.30;99.90;;;;;;5028446;28;20074;-43
2021/08/11 03:52:41;;;;;;;13.90;11.38;;;15.30;99.90;;;;;;5028182;28;20425;-42
2021/08/11 03:55:11;;;;;;;17.27;12.82;;;15.30;99.90;;;;;;5028599;28;20492;-42
2021/08/11 03:57:40;;;;;;;17.48;13.40;;;15.30;99.90;;;;;;5027623;28;20018;-42
2021/08/11 04:00:07;;;;;;;16.95;13.75;;;15.30;99.90;;;;;;5028849;28;20064;-41
2021/08/11 04:02:35;;;;;;;20.10;15.18;;;15.30;99.90;;;;;;5028875;28;20022;-41
2021/08/11 04:05:08;;;;;;;19.95;16.25;;;15.40;99.90;;;;;;5027479;28;20384;-40
2021/08/11 04:07:35;;;;;;;21.73;16.52;;;15.40;99.90;;;;;;5028942;28;20022;-39
2021/08/11 04:10:07;;;;;;;21.85;16.13;;;15.50;99.90;;;;;;5028526;28;20132;-39
2021/08/11 04:12:33;;;;;;;21.95;15.82;;;15.50;99.90;;;;;;5027752;28;20036;-38
2021/08/11 04:14:59;;;;;;;19.85;16.35;;;15.60;99.90;;;;;;5027836;28;20116;-40
2021/08/11 04:17:28;;;;;;;20.30;16.30;;;15.60;99.90;;;;;;5028561;28;20026;-40
2021/08/11 04:19:53;;;;;;;36.47;15.55;;;15.70;99.90;;;;;;5027319;28;20053;-43
2021/08/11 04:22:20;;;;;;;22.88;15.02;;;15.70;99.90;;;;;;5028605;28;20045;-39
2021/08/11 04:24:46;;;;;;;21.15;14.68;;;15.70;99.90;;;;;;5030917;28;20489;-43
2021/08/11 04:27:12;;;;;;;22.10;14.35;;;15.70;99.90;;;;;;5031644;28;20080;-43
2021/08/11 04:29:37;;;;;;;17.70;14.27;;;15.70;99.90;;;;;;5031481;28;20013;-40
2021/08/11 04:32:06;;;;;;;18.75;13.95;;;15.80;99.90;;;;;;5030590;28;20083;-40
2021/08/11 04:34:31;;;;;;;22.08;13.40;;;15.80;99.90;;;;;;5031737;28;20128;-43
2021/08/11 04:36:59;;;;;;;14.82;12.68;;;15.80;99.90;;;;;;5031792;28;20124;-40
2021/08/11 04:39:26;;;;;;;18.88;12.65;;;15.90;99.90;;;;;;5031483;28;20033;-44
2021/08/11 04:41:52;;;;;;;14.38;12.45;;;15.90;99.90;;;;;;5030960;28;20045;-39
2021/08/11 04:44:18;;;;;;;25.85;12.93;;;15.90;99.90;;;;;;5031403;28;20163;-39
2021/08/11 04:46:43;;;;;;;17.33;12.57;;;15.90;99.90;;;;;;5030528;28;20496;-39
2021/08/11 04:49:09;;;;;;;27.92;12.88;;;16.00;99.90;;;;;;5031507;28;20432;-43
2021/08/11 04:51:35;;;;;;;14.60;11.18;;;16.00;99.90;;;;;;5031706;28;20369;-43
2021/08/11 04:54:01;;;;;;;26.60;11.63;;;15.90;99.90;;;;;;5030083;28;20025;-41
2021/08/11 04:56:27;;;;;;;21.05;10.48;;;15.90;99.90;;;;;;5031786;28;20028;-40
2021/08/11 04:58:52;;;;;;;24.15;9.20;;;15.90;99.90;;;;;;5030679;28;20033;-42
2021/08/11 05:01:18;;;;;;;14.10;9.02;;;15.90;99.90;;;;;;5031019;28;20473;-42
2021/08/11 05:03:44;;;;;;;18.98;8.13;;;15.90;99.90;;;;;;5030183;28;20540;-41
2021/08/11 05:06:10;;;;;;;13.43;7.68;;;15.90;99.90;;;;;;5031146;28;20532;-40
2021/08/11 05:08:37;;;;;;;20.20;7.32;;;15.90;99.90;;;;;;5030581;28;20109;-41
2021/08/11 05:11:08;;;;;;;7.38;6.78;;;15.90;99.90;;;;;;5030523;28;20045;-44
2021/08/11 05:13:35;;;;;;;6.90;6.30;;;15.90;99.90;;;;;;5031536;28;20033;-39
2021/08/11 05:16:00;;;;;;;9.30;6.82;;;15.90;99.90;;;;;;5028756;28;20113;-40
2021/08/11 05:18:26;;;;;;;10.95;7.13;;;15.90;99.90;;;;;;5030509;28;20108;-43
2021/08/11 05:20:52;;;;;;;8.65;6.40;;;15.90;99.90;;;;;;5030470;28;20044;-41
2021/08/11 05:23:18;;;;;;;18.48;5.60;;;15.90;99.90;;;;;;5027563;28;20040;-40
2021/08/11 05:25:45;;;;;;;28.45;6.57;;;15.90;99.90;;;;;;5029575;28;20034;-41
2021/08/11 05:28:11;;;;;;;9.07;6.00;;;15.90;99.90;;;;;;5030034;28;20951;-39
2021/08/11 05:30:39;;;;;;;8.90;6.22;;;15.90;99.90;;;;;;5029934;28;20025;-41
2021/08/11 05:33:06;;;;;;;10.50;5.75;;;16.00;99.90;;;;;;5030130;28;20057;-41
2021/08/11 05:35:32;;;;;;;6.90;6.30;;;16.00;99.90;;;;;;5030115;28;20104;-40
2021/08/11 05:38:00;;;;;;;13.52;6.40;;;16.10;99.90;;;;;;5030657;28;20029;-41
2021/08/11 05:40:27;;;;;;;14.68;6.22;;;16.10;99.90;;;;;;5030648;28;20032;-39
2021/08/11 05:42:53;;;;;;;12.73;7.95;;;16.10;99.90;;;;;;5029402;28;20021;-41
2021/08/11 05:45:19;;;;;;;14.57;7.30;;;16.20;99.90;;;;;;5031315;28;20029;-42
2021/08/11 05:47:45;;;;;;;12.07;6.68;;;16.20;99.90;;;;;;5030887;28;20018;-42
2021/08/11 05:50:11;;;;;;;7.47;6.75;;;16.20;99.90;;;;;;5029974;28;20029;-41
2021/08/11 05:52:37;;;;;;;8.32;6.93;;;16.20;99.90;;;;;;5030036;28;20544;-40
2021/08/11 05:55:03;;;;;;;7.55;6.80;;;16.30;99.90;;;;;;5029502;28;20120;-44
2021/08/11 05:57:30;;;;;;;11.88;6.85;;;16.30;99.90;;;;;;5030288;28;20510;-40
2021/08/11 05:59:55;;;;;;;8.05;7.35;;;16.30;99.90;;;;;;5029642;28;20389;-42
2021/08/11 06:02:21;;;;;;;8.25;7.47;;;16.30;99.90;;;;;;5034275;28;20035;-41
2021/08/11 06:04:47;;;;;;;8.50;6.78;;;16.40;99.90;;;;;;5027739;28;20032;-41
2021/08/11 06:07:13;;;;;;;10.82;7.35;;;16.40;99.90;;;;;;5028284;28;20026;-41
2021/08/11 06:09:38;;;;;;;13.15;7.88;;;16.40;99.90;;;;;;5028720;28;20428;-40
2021/08/11 06:12:04;;;;;;;7.97;7.13;;;16.40;99.90;;;;;;5027983;28;20112;-42
2021/08/11 06:14:29;;;;;;;8.95;8.15;;;16.50;99.90;;;;;;5028664;28;20127;-41
2021/08/11 06:16:55;;;;;;;9.95;8.95;;;16.50;99.90;;;;;;5028362;28;20010;-41
2021/08/11 06:19:21;;;;;;;8.73;7.97;;;16.70;99.90;;;;;;5029484;28;20029;-39
2021/08/11 06:21:46;;;;;;;10.35;9.25;;;16.80;99.90;;;;;;5028858;28;20042;-40
2021/08/11 06:24:12;;;;;;;10.32;9.23;;;16.80;99.90;;;;;;5029738;28;20025;-42
2021/08/11 06:26:38;;;;;;;10.38;8.38;;;16.90;99.90;;;;;;5028397;28;20524;-40
2021/08/11 06:29:03;;;;;;;9.65;8.73;;;17.00;99.90;;;;;;5029111;28;20024;-39
2021/08/11 06:31:29;;;;;;;8.50;7.63;;;17.00;99.90;;;;;;5028773;28;20048;-40
2021/08/11 06:33:55;;;;;;;9.73;8.73;;;17.00;99.90;;;;;;5028821;28;20492;-39
2021/08/11 06:36:21;;;;;;;10.07;9.07;;;17.00;99.90;;;;;;5029549;28;20025;-40
2021/08/11 06:38:47;;;;;;;8.88;8.07;;;16.90;99.90;;;;;;5027112;28;20022;-34
2021/08/11 06:41:16;;;;;;;9.55;8.65;;;16.90;99.90;;;;;;5030045;28;20021;-40
2021/08/11 06:43:43;;;;;;;10.65;9.57;;;16.90;99.90;;;;;;5028216;28;20037;-42
2021/08/11 06:46:09;;;;;;;9.02;8.13;;;16.90;99.90;;;;;;5028200;28;20024;-41
2021/08/11 06:48:36;;;;;;;9.32;8.32;;;16.80;99.90;;;;;;5028820;28;20067;-41
2021/08/11 06:51:02;;;;;;;9.07;8.20;;;16.80;99.90;;;;;;5029470;28;20021;-38
2021/08/11 06:53:28;;;;;;;9.40;8.50;;;16.80;99.90;;;;;;5028886;28;20030;-41
2021/08/11 06:55:53;;;;;;;8.15;7.43;;;16.80;99.90;;;;;;5028217;28;20026;-39
2021/08/11 06:58:19;;;;;;;9.18;7.55;;;16.80;99.90;;;;;;5029341;28;20026;-42
2021/08/11 07:00:44;;;;;;;8.52;7.65;;;16.80;99.90;;;;;;5027906;28;20017;-40
2021/08/11 07:03:10;;;;;;;8.07;7.28;;;16.80;99.90;;;;;;5027651;28;20377;-38
2021/08/11 07:05:36;;;;;;;7.85;7.15;;;16.90;99.90;;;;;;5029863;28;20511;-42
2021/08/11 07:08:01;;;;;;;7.20;6.47;;;16.90;99.90;;;;;;5027700;28;20033;-40
2021/08/11 07:10:27;;;;;;;7.32;6.63;;;16.90;99.90;;;;;;5028466;28;20054;-40
2021/08/11 07:12:52;;;;;;;7.13;5.88;;;17.00;99.90;;;;;;5028324;28;20057;-41
2021/08/11 07:15:18;;;;;;;8.23;7.43;;;17.00;99.90;;;;;;5028227;28;20056;-40
2021/08/11 07:17:51;;;;;;;8.23;7.43;;;17.10;99.90;;;;;;5028654;28;20022;-39
2021/08/11 07:20:17;;;;;;;8.68;7.78;;;17.20;99.90;;;;;;5028262;28;20034;-39
2021/08/11 07:22:42;;;;;;;8.38;7.57;;;17.20;99.90;;;;;;5028564;28;20044;-40
2021/08/11 07:25:12;;;;;;;8.15;7.35;;;17.30;99.90;;;;;;5028357;28;20104;-39
2021/08/11 07:27:38;;;;;;;8.68;7.88;;;17.40;99.90;;;;;;5028372;28;20881;-41
2021/08/11 07:30:05;;;;;;;8.68;7.82;;;17.50;99.90;;;;;;5027702;28;20069;-41
2021/08/11 07:32:33;;;;;;;7.10;6.40;;;17.60;99.90;;;;;;5029121;28;20022;-39
2021/08/11 07:34:59;;;;;;;8.02;7.30;;;17.70;99.90;;;;;;5025176;28;20072;-38
2021/08/11 07:37:24;;;;;;;8.55;7.75;;;17.80;99.90;;;;;;5028911;28;20373;-41
2021/08/11 07:39:53;;;;;;;7.10;6.40;;;17.90;99.90;;;;;;5027962;28;20029;-41
2021/08/11 07:42:19;;;;;;;8.75;7.38;;;18.00;99.90;;;;;;5028739;28;20026;-42
2021/08/11 07:44:48;;;;;;;9.20;7.07;;;18.10;99.90;;;;;;5027711;28;20025;-42
2021/08/11 07:47:13;;;;;;;9.43;8.02;;;18.10;99.90;;;;;;5029106;28;20583;-42
2021/08/11 07:49:39;;;;;;;8.45;5.38;;;18.20;99.90;;;;;;5027544;28;20017;-37
2021/08/11 07:52:04;;;;;;;11.48;8.52;;;18.30;99.90;;;;;;5028075;28;20057;-42
2021/08/11 07:54:30;;;;;;;9.85;7.85;;;18.30;99.90;;;;;;5028668;28;20473;-36
2021/08/11 07:56:56;;;;;;;9.20;7.40;;;18.40;99.90;;;;;;5027025;28;21043;-39
2021/08/11 07:59:21;;;;;;;8.20;6.78;;;18.40;99.90;;;;;;5030924;28;20025;-42
2021/08/11 08:01:47;;;;;;;6.50;5.30;;;18.50;99.90;;;;;;5031681;28;20026;-34
2021/08/11 08:04:13;;;;;;;8.38;7.22;;;18.50;99.90;;;;;;5031734;28;20492;-40
2021/08/11 08:06:39;;;;;;;8.05;7.25;;;18.60;99.90;;;;;;5031838;28;20013;-41
2021/08/11 08:09:04;;;;;;;8.00;7.20;;;18.70;99.90;;;;;;5031761;28;20033;-42
2021/08/11 08:11:30;;;;;;;8.48;7.53;;;18.80;99.90;;;;;;5031332;28;20053;-40
2021/08/11 08:13:56;;;;;;;9.13;6.75;;;18.90;99.90;;;;;;5031028;28;20236;-40
2021/08/11 08:16:21;;;;;;;9.43;7.43;;;19.00;99.90;;;;;;5031659;28;20026;-41
2021/08/11 08:18:47;;;;;;;8.15;6.38;;;19.10;99.90;;;;;;5031045;28;20033;-40
2021/08/11 08:21:13;;;;;;;8.02;6.95;;;19.20;99.90;;;;;;5031333;28;20025;-39
2021/08/11 08:23:39;;;;;;;8.30;6.95;;;19.40;99.90;;;;;;5031284;28;20033;-40
2021/08/11 08:26:05;;;;;;;11.85;9.95;;;19.50;99.90;;;;;;5030661;28;20025;-40
2021/08/11 08:28:30;;;;;;;12.48;8.80;;;19.60;99.90;;;;;;5032041;28;20025;-39
2021/08/11 08:30:56;;;;;;;11.50;9.43;;;19.70;99.90;;;;;;5030697;28;20061;-41
2021/08/11 08:33:22;;;;;;;12.73;10.02;;;19.80;99.90;;;;;;5031133;28;20063;-38
2021/08/11 08:35:48;;;;;;;12.95;10.02;;;19.90;99.90;;;;;;5031110;28;20384;-37
2021/08/11 08:38:14;;;;;;;9.38;8.38;;;20.10;99.90;;;;;;5030863;28;20017;-39
2021/08/11 08:40:40;;;;;;;13.52;9.45;;;20.20;99.90;;;;;;5030948;28;20472;-43
2021/08/11 08:43:07;;;;;;;13.48;10.70;;;20.30;99.90;;;;;;5031146;28;20519;-38
2021/08/11 08:45:34;;;;;;;13.65;11.23;;;20.50;99.90;;;;;;5030489;28;20029;-40
2021/08/11 08:48:04;;;;;;;11.70;10.25;;;20.70;99.90;;;;;;5030807;28;20013;-37
2021/08/11 08:50:32;;;;;;;13.10;10.48;;;20.80;99.90;;;;;;5031968;28;20423;-40
2021/08/11 08:53:00;;;;;;;13.60;12.15;;;20.90;99.90;;;;;;5029782;28;20053;-40
2021/08/11 08:55:30;;;;;;;17.75;12.23;;;21.00;99.90;;;;;;5031023;28;20137;-41
2021/08/11 08:57:55;;;;;;;15.13;10.98;;;21.10;99.90;;;;;;5030699;28;20112;-43
2021/08/11 09:00:22;;;;;;;13.15;10.82;;;21.10;99.90;;;;;;5030622;28;20481;-43
2021/08/11 09:02:48;;;;;;;10.43;9.32;;;21.20;99.90;;;;;;5030717;28;20037;-40
2021/08/11 09:05:13;;;;;;;10.40;9.00;;;21.20;99.90;;;;;;5030793;28;20064;-37
2021/08/11 09:07:45;;;;;;;8.32;7.13;;;21.10;99.90;;;;;;5030561;28;20022;-40
2021/08/11 09:10:15;;;;;;;9.73;8.67;;;21.10;99.90;;;;;;5030252;28;20100;-39
2021/08/11 09:12:46;;;;;;;10.82;7.70;;;21.10;99.90;;;;;;5030796;28;20017;-41
2021/08/11 09:15:33;;;;;;;10.90;9.27;;;20.90;99.90;;;;;;5029603;28;20112;-42
2021/08/11 09:18:09;;;;;;;14.18;9.68;;;20.90;99.90;;;;;;5029871;28;20021;-42
2021/08/11 09:20:39;;;;;;;11.32;9.00;;;20.80;99.90;;;;;;5031196;28;20083;-42
2021/08/11 09:23:05;;;;;;;10.93;8.68;;;20.80;99.90;;;;;;5029659;28;20021;-41
2021/08/11 09:25:30;;;;;;;11.80;9.93;;;20.70;99.90;;;;;;5030705;28;20367;-44
2021/08/11 09:27:56;;;;;;;9.23;8.02;;;20.70;99.90;;;;;;5029360;28;20052;-40
2021/08/11 09:30:23;;;;;;;13.82;10.55;;;20.60;99.90;;;;;;5030888;28;20043;-38
2021/08/11 09:33:02;;;;;;;13.30;10.50;;;20.60;99.90;;;;;;5030341;28;20036;-45
2021/08/11 09:35:30;;;;;;;10.18;8.80;;;20.60;99.90;;;;;;5020699;28;20026;-44
2021/08/11 09:37:58;;;;;;;9.25;8.32;;;20.60;99.90;;;;;;5029579;28;20432;-42
2021/08/11 09:40:31;;;;;;;9.93;8.27;;;20.60;99.90;;;;;;5030424;28;20442;-40
2021/08/11 09:43:08;;;;;;;11.15;9.23;;;20.80;99.90;;;;;;5029711;28;20017;-44
2021/08/11 09:45:45;;;;;;;11.93;10.13;;;20.90;99.90;;;;;;5030414;28;20040;-39
2021/08/11 09:48:11;;;;;;;9.60;8.60;;;21.10;99.90;;;;;;5030815;28;20118;-43
2021/08/11 09:50:46;;;;;;;8.40;7.55;;;21.30;99.90;;;;;;5029900;28;20071;-40
2021/08/11 09:53:33;;;;;;;10.68;8.75;;;21.40;99.90;;;;;;5030339;28;20033;-41
2021/08/11 09:56:06;;;;;;;9.85;8.85;;;21.60;99.90;;;;;;5028363;28;20068;-44
2021/08/11 09:58:37;;;;;;;8.52;7.70;;;21.70;99.90;;;;;;5029849;28;20045;-43
2021/08/11 10:01:10;;;;;;;10.23;9.18;;;21.70;99.90;;;;;;5029620;28;20130;-43
2021/08/11 10:03:58;;;;;;;9.02;7.97;;;21.80;99.90;;;;;;5029116;28;20602;-42
2021/08/11 10:06:34;;;;;;;8.20;6.65;;;21.90;99.90;;;;;;5020234;28;20060;-42
2021/08/11 10:09:23;;;;;;;7.35;6.63;;;22.10;99.90;;;;;;5029317;28;20164;-43
2021/08/11 10:11:51;;;;;;;8.20;6.50;;;22.30;99.90;;;;;;5020066;28;20049;-43
2021/08/11 10:14:22;;;;;;;6.65;5.53;;;22.40;99.90;;;;;;5029964;28;20024;-45
2021/08/11 10:16:49;;;;;;;6.67;5.27;;;22.50;99.90;;;;;;5028894;28;20061;-41
2021/08/11 10:19:16;;;;;;;5.25;4.72;;;22.60;99.80;;;;;;5029790;28;20024;-42
2021/08/11 10:21:47;;;;;;;4.82;4.05;;;22.70;99.60;;;;;;5028745;28;20108;-38
2021/08/11 10:24:13;;;;;;;7.28;6.15;;;22.80;99.30;;;;;;5029204;28;20045;-44
2021/08/11 10:26:40;;;;;;;5.95;5.35;;;22.80;98.60;;;;;;5028835;28;20030;-41
2021/08/11 10:29:09;;;;;;;5.38;4.88;;;22.90;98.60;;;;;;5029288;28;20352;-44
2021/08/11 10:31:35;;;;;;;5.25;4.65;;;23.00;98.60;;;;;;5028241;28;20435;-43
2021/08/11 10:34:02;;;;;;;6.32;5.72;;;23.00;98.60;;;;;;5028712;28;20470;-39
2021/08/11 10:36:31;;;;;;;6.90;6.13;;;23.00;98.50;;;;;;5029080;28;20052;-42
2021/08/11 10:38:59;;;;;;;6.20;5.25;;;22.90;98.10;;;;;;5028599;28;20025;-44
2021/08/11 10:41:33;;;;;;;5.32;4.82;;;23.00;98.00;;;;;;5029506;28;20579;-41
2021/08/11 10:44:01;;;;;;;5.50;5.00;;;23.00;98.00;;;;;;5009174;28;20026;-42
2021/08/11 10:46:42;;;;;;;8.23;6.55;;;23.10;98.00;;;;;;5024453;28;20037;-43
2021/08/11 10:49:10;;;;;;;6.57;5.72;;;23.20;97.70;;;;;;5010133;28;20105;-44
2021/08/11 10:51:41;;;;;;;4.63;4.22;;;23.20;97.80;;;;;;5024224;28;20036;-40
2021/08/11 10:54:07;;;;;;;5.75;4.63;;;23.30;97.90;;;;;;5029444;28;20022;-41
2021/08/11 10:56:42;;;;;;;4.25;3.85;;;23.40;97.80;;;;;;5029314;28;20065;-44
2021/08/11 10:59:28;;;;;;;3.80;3.42;;;23.50;97.70;;;;;;5027870;28;20104;-42
2021/08/11 11:01:55;;;;;;;4.30;3.90;;;23.60;97.70;;;;;;5027764;28;20041;-43
2021/08/11 11:04:50;;;;;;;4.25;3.72;;;23.70;97.20;;;;;;5029360;28;20043;-42
2021/08/11 11:07:18;;;;;;;3.75;3.30;;;23.80;97.20;;;;;;5028369;28;20086;-42
2021/08/11 11:09:45;;;;;;;3.92;3.38;;;23.80;96.80;;;;;;5008893;28;20462;-40
2021/08/11 11:12:17;;;;;;;4.85;4.25;;;23.80;96.80;;;;;;5023169;28;20488;-39
2021/08/11 11:14:43;;;;;;;4.65;4.13;;;23.80;96.50;;;;;;5028603;28;20106;-39
2021/08/11 11:17:09;;;;;;;5.80;4.20;;;23.80;96.10;;;;;;5027980;28;20026;-41
2021/08/11 11:20:12;;;;;;;4.28;3.88;;;23.80;95.90;;;;;;5029311;28;20022;-42
2021/08/11 11:22:51;;;;;;;5.20;4.00;;;23.60;95.90;;;;;;5028384;28;20041;-40
2021/08/11 11:25:18;;;;;;;4.15;3.53;;;23.40;95.70;;;;;;5008769;28;20799;-41
2021/08/11 11:27:44;;;;;;;3.10;2.90;;;23.30;95.70;;;;;;5022948;28;20032;-41
2021/08/11 11:30:14;;;;;;;3.97;3.53;;;23.20;95.40;;;;;;5028462;28;20029;-41
2021/08/11 11:32:41;;;;;;;4.25;3.72;;;23.10;95.50;;;;;;5029681;28;20036;-41
2021/08/11 11:35:16;;;;;;;5.97;4.00;;;23.10;95.10;;;;;;5031766;28;20068;-41
2021/08/11 11:37:42;;;;;;;3.75;3.10;;;23.20;95.50;;;;;;5032754;28;20033;-41
2021/08/11 11:40:13;;;;;;;3.80;3.25;;;23.20;95.70;;;;;;5032619;28;20104;-44
2021/08/11 11:42:39;;;;;;;4.63;3.70;;;23.20;95.90;;;;;;5031950;28;20021;-44
2021/08/11 11:45:10;;;;;;;4.90;3.95;;;23.30;95.90;;;;;;5032489;28;20044;-44
2021/08/11 11:50:24;;;;;;;4.97;3.40;;;23.50;95.70;;;;;;5030486;28;20455;-43
2021/08/11 11:53:06;;;;;;;3.22;2.92;;;23.60;95.80;;;;;;5032349;28;20562;-44
2021/08/11 11:55:33;;;;;;;;;;;23.80;95.80;;;;;;5032910;28;20047;-44
2021/08/11 11:58:02;;;;;;;3.65;3.35;;;24.00;95.70;;;;;;5031405;28;19905;-38
2021/08/11 12:00:29;;;;;;;4.15;3.75;;;24.10;95.20;;;;;;5032289;28;20040;-41
2021/08/11 12:02:55;;;;;;;3.42;3.13;;;24.30;95.00;;;;;;5031631;28;20022;-40
2021/08/11 12:05:21;;;;;;;3.70;3.22;;;24.40;95.00;;;;;;5032065;28;20191;-42
2021/08/11 12:07:47;;;;;;;5.00;3.42;;;24.40;94.90;;;;;;5031877;28;20140;-41
2021/08/11 12:10:30;;;;;;;4.10;3.50;;;24.40;94.80;;;;;;5031896;28;20140;-41
2021/08/11 12:13:02;;;;;;;5.15;3.53;;;24.30;94.90;;;;;;5031697;28;20195;-39
2021/08/11 12:15:29;;;;;;;4.53;3.90;;;24.20;95.00;;;;;;5032204;28;20487;-40
2021/08/11 12:17:57;;;;;;;4.60;3.35;;;24.10;94.90;;;;;;5031163;28;20047;-37
2021/08/11 12:20:30;;;;;;;4.72;3.45;;;24.00;95.10;;;;;;5032394;28;20029;-37
2021/08/11 12:22:57;;;;;;;4.72;3.65;;;23.90;95.00;;;;;;5031580;28;20069;-43
2021/08/11 12:25:28;;;;;;;4.60;4.03;;;23.80;95.00;;;;;;5030723;28;20034;-41
2021/08/11 12:28:16;;;;;;;4.30;3.55;;;23.80;94.90;;;;;;5032086;28;20033;-40
2021/08/11 12:30:56;;;;;;;7.05;3.85;;;23.70;94.90;;;;;;5027717;28;20025;-40
2021/08/11 12:33:23;;;;;;;5.40;3.78;;;23.70;94.70;;;;;;5031372;28;20116;-40
2021/08/11 12:35:51;;;;;;;3.55;3.22;;;23.70;94.40;;;;;;5031501;28;20028;-41
2021/08/11 12:38:27;;;;;;;3.55;3.03;;;23.70;94.40;;;;;;5029968;28;20025;-40
2021/08/11 12:40:53;;;;;;;3.67;3.38;;;23.70;94.50;;;;;;5030052;28;20022;-41
2021/08/11 12:43:18;;;;;;;4.75;3.20;;;23.70;94.50;;;;;;5031556;28;20025;-42
2021/08/11 12:45:52;;;;;;;3.78;3.20;;;23.70;94.50;;;;;;5028917;28;20037;-41
2021/08/11 12:48:39;;;;;;;3.13;2.67;;;23.80;94.60;;;;;;5031408;28;20045;-40
2021/08/11 12:51:07;;;;;;;3.33;2.95;;;23.80;94.20;;;;;;5031440;28;20010;-44
2021/08/11 12:53:35;;;;;;;3.10;2.80;;;23.80;94.20;;;;;;5031352;28;20032;-41